Time;durP1;ratioP1;P1;durP2;ratioP2;P2;SDS_P1;SDS_P2;PMS_P1;PMS_P2;Temp;Humidity;BMP_temperature;BMP_pressure;BME280_temperature;BME280_humidity;BME280_pressure;Samples;Min_cycle;Max_cycle;Signal;HPM_P1;HPM_P2
2021/05/12 00:01:42;;;;;;;2.97;1.60;;;13.90;99.90;;;;;;5063606;28;20590;-72
2021/05/12 00:04:08;;;;;;;1.80;1.70;;;13.90;99.90;;;;;;5029554;28;20211;-71
2021/05/12 00:06:34;;;;;;;4.53;1.60;;;13.80;99.90;;;;;;5030443;28;20691;-72
2021/05/12 00:09:00;;;;;;;1.90;1.50;;;13.80;99.90;;;;;;5020760;28;20223;-71
2021/05/12 00:11:26;;;;;;;1.40;1.30;;;13.80;99.90;;;;;;5030460;28;20283;-71
2021/05/12 00:13:52;;;;;;;3.10;2.03;;;13.80;99.90;;;;;;5032284;28;20294;-71
2021/05/12 00:16:18;;;;;;;1.70;1.60;;;13.80;99.90;;;;;;5038429;28;20449;-71
2021/05/12 00:18:46;;;;;;;2.40;1.67;;;13.80;99.90;;;;;;5054311;28;20628;-71
2021/05/12 00:21:17;;;;;;;1.50;1.27;;;13.70;99.90;;;;;;5022098;28;20449;-71
2021/05/12 00:24:01;;;;;;;1.60;1.50;;;13.70;99.90;;;;;;5055711;28;20489;-71
2021/05/12 00:26:38;;;;;;;4.40;1.93;;;13.60;99.90;;;;;;5055165;28;20858;-71
2021/05/12 00:29:06;;;;;;;1.83;1.53;;;13.50;99.90;;;;;;5054190;28;20462;-71
2021/05/12 00:31:31;;;;;;;1.67;1.57;;;13.50;99.90;;;;;;5004252;28;20454;-72
2021/05/12 00:33:57;;;;;;;1.70;1.60;;;13.40;99.90;;;;;;5020952;28;20515;-72
2021/05/12 00:36:23;;;;;;;2.30;1.80;;;13.40;99.90;;;;;;5070632;28;20701;-72
2021/05/12 00:38:49;;;;;;;1.60;1.50;;;13.40;99.90;;;;;;5087404;28;20235;-73
2021/05/12 00:41:15;;;;;;;1.67;1.57;;;13.30;99.90;;;;;;5021441;28;20449;-71
2021/05/12 00:43:40;;;;;;;2.30;1.50;;;13.30;99.90;;;;;;5054746;28;20231;-73
2021/05/12 00:46:06;;;;;;;1.90;1.80;;;13.30;99.90;;;;;;5053636;28;20231;-71
2021/05/12 00:48:32;;;;;;;2.97;1.70;;;13.20;99.90;;;;;;5036852;28;20298;-71
2021/05/12 00:51:02;;;;;;;2.00;1.77;;;13.20;99.90;;;;;;5067356;28;20695;-71
2021/05/12 00:53:28;;;;;;;3.03;1.80;;;13.20;99.90;;;;;;5051957;28;20250;-72
2021/05/12 00:55:53;;;;;;;2.30;1.80;;;13.10;99.90;;;;;;5050689;28;20474;-71
2021/05/12 00:58:19;;;;;;;1.90;1.70;;;13.10;99.90;;;;;;5069622;28;20246;-71
2021/05/12 01:00:45;;;;;;;1.67;1.57;;;13.10;99.90;;;;;;5035352;28;20690;-71
2021/05/12 01:03:10;;;;;;;2.10;1.47;;;13.10;99.90;;;;;;5071436;28;20222;-71
2021/05/12 01:05:36;;;;;;;1.90;1.80;;;13.10;99.90;;;;;;5054164;28;20288;-72
2021/05/12 01:08:03;;;;;;;2.60;2.40;;;13.10;99.90;;;;;;5053707;28;20608;-70
2021/05/12 01:10:30;;;;;;;2.10;1.70;;;13.10;99.90;;;;;;5053774;28;20220;-71
2021/05/12 01:12:56;;;;;;;1.93;1.63;;;13.00;99.90;;;;;;5036937;28;20450;-71
2021/05/12 01:15:22;;;;;;;2.50;2.30;;;13.00;99.90;;;;;;5040363;28;20442;-71
2021/05/12 01:17:47;;;;;;;1.73;1.63;;;13.00;99.90;;;;;;5053209;28;20223;-71
2021/05/12 01:20:13;;;;;;;1.60;1.47;;;13.00;99.90;;;;;;5071222;28;20231;-72
2021/05/12 01:22:40;;;;;;;1.83;1.70;;;13.00;99.90;;;;;;5065890;28;20218;-71
2021/05/12 01:25:08;;;;;;;2.27;2.07;;;13.00;99.90;;;;;;5067139;28;20441;-71
2021/05/12 01:27:33;;;;;;;2.80;2.60;;;13.00;99.90;;;;;;5070565;28;20454;-71
2021/05/12 01:29:59;;;;;;;1.80;1.50;;;13.00;99.90;;;;;;5069555;28;20456;-72
2021/05/12 01:32:35;;;;;;;3.53;1.80;;;12.90;99.90;;;;;;5050563;28;20224;-71
2021/05/12 01:35:10;;;;;;;2.20;1.73;;;12.90;99.90;;;;;;5028849;28;20227;-71
2021/05/12 01:37:36;;;;;;;2.67;2.10;;;12.90;99.90;;;;;;5042045;28;20470;-71
2021/05/12 01:40:07;;;;;;;2.50;1.97;;;12.80;99.90;;;;;;5049545;28;20490;-71
2021/05/12 01:42:33;;;;;;;2.73;1.80;;;12.80;99.90;;;;;;5056109;28;20460;-71
2021/05/12 01:45:09;;;;;;;2.57;2.17;;;12.80;99.90;;;;;;5055257;28;20517;-74
2021/05/12 01:47:35;;;;;;;2.10;1.90;;;12.80;99.90;;;;;;5036815;28;20277;-71
2021/05/12 01:50:05;;;;;;;2.63;2.00;;;12.80;99.90;;;;;;5070232;28;20477;-72
2021/05/12 01:52:43;;;;;;;1.70;1.57;;;12.80;99.90;;;;;;5020370;28;21019;-71
2021/05/12 01:55:16;;;;;;;1.73;1.63;;;12.70;99.90;;;;;;5035798;28;20454;-72
2021/05/12 01:57:43;;;;;;;4.93;2.17;;;12.70;99.90;;;;;;5031835;28;20508;-71
2021/05/12 02:00:26;;;;;;;2.20;2.00;;;12.70;99.90;;;;;;5067618;28;20457;-71
2021/05/12 02:02:53;;;;;;;1.90;1.80;;;12.70;99.90;;;;;;5055624;28;20831;-73
2021/05/12 02:05:20;;;;;;;2.47;2.30;;;12.70;99.90;;;;;;5063628;28;20477;-74
2021/05/12 02:07:48;;;;;;;1.80;1.70;;;12.70;99.90;;;;;;5082151;28;20978;-71
2021/05/12 02:10:14;;;;;;;2.70;1.93;;;12.70;99.90;;;;;;5094412;28;20470;-71
2021/05/12 02:12:40;;;;;;;3.97;2.10;;;12.60;99.90;;;;;;5072955;28;21129;-71
2021/05/12 02:15:09;;;;;;;2.60;2.40;;;12.60;99.90;;;;;;5072620;28;20506;-71
2021/05/12 02:17:34;;;;;;;2.23;2.10;;;12.60;99.90;;;;;;5056556;28;20227;-71
2021/05/12 02:20:00;;;;;;;1.60;1.50;;;12.60;99.90;;;;;;5064405;28;20473;-72
2021/05/12 02:22:25;;;;;;;2.47;1.43;;;12.60;99.90;;;;;;5073989;28;20215;-71
2021/05/12 02:24:51;;;;;;;2.00;1.67;;;12.60;99.90;;;;;;5039261;28;20267;-71
2021/05/12 02:27:17;;;;;;;1.70;1.60;;;12.60;99.90;;;;;;5057501;28;20707;-71
2021/05/12 02:29:43;;;;;;;2.00;1.80;;;12.60;99.90;;;;;;5040905;28;20217;-71
2021/05/12 02:32:08;;;;;;;2.13;1.93;;;12.60;99.90;;;;;;5048665;28;20215;-72
2021/05/12 02:34:34;;;;;;;2.27;1.80;;;12.60;99.90;;;;;;5058434;28;20221;-71
2021/05/12 02:37:00;;;;;;;1.80;1.53;;;12.60;99.90;;;;;;5037818;28;20218;-72
2021/05/12 02:39:28;;;;;;;1.80;1.70;;;12.60;99.90;;;;;;5055614;28;20236;-71
2021/05/12 02:41:54;;;;;;;1.60;1.50;;;12.60;99.90;;;;;;5089217;28;20229;-71
2021/05/12 02:44:20;;;;;;;2.17;1.97;;;12.60;99.90;;;;;;5070001;28;20984;-71
2021/05/12 02:46:45;;;;;;;3.03;2.13;;;12.60;99.90;;;;;;5035736;28;20489;-71
2021/05/12 02:49:11;;;;;;;3.20;3.00;;;12.60;99.90;;;;;;5020777;28;20480;-71
2021/05/12 02:51:37;;;;;;;2.30;2.10;;;12.60;99.90;;;;;;5058922;28;20530;-71
2021/05/12 02:54:03;;;;;;;1.97;1.70;;;12.60;99.90;;;;;;5042740;28;20659;-71
2021/05/12 02:56:28;;;;;;;1.83;1.70;;;12.60;99.90;;;;;;5048126;28;20751;-72
2021/05/12 02:58:54;;;;;;;5.50;2.80;;;12.50;99.90;;;;;;5071865;28;20472;-71
2021/05/12 03:01:20;;;;;;;2.03;1.90;;;12.50;99.90;;;;;;5039192;28;20217;-71
2021/05/12 03:03:45;;;;;;;2.23;2.03;;;12.50;99.90;;;;;;5038783;28;20233;-71
2021/05/12 03:06:49;;;;;;;2.30;2.10;;;12.50;99.90;;;;;;5055351;28;20267;-71
2021/05/12 03:09:15;;;;;;;1.77;1.67;;;12.50;99.90;;;;;;5082409;28;20249;-72
2021/05/12 03:11:41;;;;;;;2.40;2.20;;;12.40;99.90;;;;;;5065856;28;20479;-71
2021/05/12 03:14:08;;;;;;;3.27;2.90;;;12.40;99.90;;;;;;5051393;28;20575;-71
2021/05/12 03:16:35;;;;;;;2.10;2.00;;;12.40;99.90;;;;;;5069340;28;20474;-71
2021/05/12 03:19:01;;;;;;;2.80;2.40;;;12.40;99.90;;;;;;5071542;28;21011;-71
2021/05/12 03:21:27;;;;;;;2.37;2.17;;;12.40;99.90;;;;;;5069289;28;20454;-71
2021/05/12 03:23:53;;;;;;;3.13;2.47;;;12.40;99.90;;;;;;5069374;28;20278;-71
2021/05/12 03:26:20;;;;;;;6.50;2.50;;;12.40;99.90;;;;;;5072751;28;20449;-71
2021/05/12 03:28:46;;;;;;;3.03;2.20;;;12.40;99.90;;;;;;5022064;28;20678;-72
2021/05/12 03:31:13;;;;;;;2.70;1.83;;;12.40;99.90;;;;;;5073761;28;20483;-72
2021/05/12 03:33:40;;;;;;;5.17;2.70;;;12.40;99.90;;;;;;5012903;28;20216;-72
2021/05/12 03:36:07;;;;;;;3.73;2.27;;;12.40;99.90;;;;;;5052357;28;20484;-71
2021/05/12 03:38:33;;;;;;;4.73;2.70;;;12.40;99.90;;;;;;5036031;28;20557;-71
2021/05/12 03:40:59;;;;;;;2.30;2.10;;;12.40;99.90;;;;;;5052027;28;20884;-71
2021/05/12 03:43:25;;;;;;;2.10;2.00;;;12.40;99.90;;;;;;5035733;28;20447;-71
2021/05/12 03:45:51;;;;;;;2.50;2.30;;;12.40;99.90;;;;;;5033263;28;20294;-71
2021/05/12 03:48:16;;;;;;;2.70;2.50;;;12.40;99.90;;;;;;5075282;28;20231;-72
2021/05/12 03:50:42;;;;;;;4.90;2.63;;;12.40;99.90;;;;;;5055244;28;20230;-71
2021/05/12 03:53:08;;;;;;;2.63;2.30;;;12.40;99.90;;;;;;5037935;28;20230;-71
2021/05/12 03:55:34;;;;;;;3.33;2.70;;;12.40;99.90;;;;;;5077659;28;20217;-71
2021/05/12 03:58:00;;;;;;;3.70;2.70;;;12.40;99.90;;;;;;5049651;28;20210;-71
2021/05/12 04:00:26;;;;;;;2.53;2.33;;;12.40;99.90;;;;;;5075424;28;20472;-71
2021/05/12 04:02:52;;;;;;;2.40;2.17;;;12.40;99.90;;;;;;5063330;28;21023;-72
2021/05/12 04:05:21;;;;;;;2.37;2.17;;;12.40;99.90;;;;;;5074895;28;20218;-71
2021/05/12 04:07:50;;;;;;;4.40;3.23;;;12.40;99.90;;;;;;5058572;28;20219;-70
2021/05/12 04:10:17;;;;;;;2.90;2.37;;;12.30;99.90;;;;;;5068644;28;20448;-70
2021/05/12 04:12:43;;;;;;;3.07;2.77;;;12.30;99.90;;;;;;5108142;28;20510;-72
2021/05/12 04:15:09;;;;;;;3.07;2.80;;;12.30;99.90;;;;;;5053025;28;20444;-72
2021/05/12 04:17:36;;;;;;;2.93;2.67;;;12.30;99.90;;;;;;5086201;28;20214;-72
2021/05/12 04:20:04;;;;;;;2.80;2.60;;;12.30;99.90;;;;;;5068444;28;20548;-71
2021/05/12 04:22:29;;;;;;;3.73;2.73;;;12.30;99.90;;;;;;5050274;28;20452;-71
2021/05/12 04:24:55;;;;;;;6.70;2.77;;;12.30;99.90;;;;;;5073671;28;20536;-71
2021/05/12 04:27:21;;;;;;;4.63;3.00;;;12.30;99.90;;;;;;5061499;28;20218;-71
2021/05/12 04:29:47;;;;;;;6.33;3.63;;;12.20;99.90;;;;;;5082520;28;20222;-71
2021/05/12 04:32:13;;;;;;;3.83;3.13;;;12.30;99.90;;;;;;5041603;28;20299;-71
2021/05/12 04:34:38;;;;;;;4.17;2.80;;;12.30;99.90;;;;;;5058230;28;20271;-71
2021/05/12 04:37:04;;;;;;;4.40;3.77;;;12.30;99.90;;;;;;5074321;28;20622;-72
2021/05/12 04:39:30;;;;;;;3.43;3.13;;;12.30;99.90;;;;;;5041101;28;20260;-71
2021/05/12 04:41:55;;;;;;;3.87;3.00;;;12.30;99.90;;;;;;5053150;28;20245;-71
2021/05/12 04:44:21;;;;;;;4.27;3.40;;;12.20;99.90;;;;;;5064496;28;20238;-72
2021/05/12 04:46:49;;;;;;;6.23;3.50;;;12.30;99.90;;;;;;5037626;28;20641;-71
2021/05/12 04:49:15;;;;;;;4.20;2.90;;;12.30;99.90;;;;;;5070645;28;20233;-71
2021/05/12 04:51:41;;;;;;;4.40;3.30;;;12.30;99.90;;;;;;5037917;28;20449;-71
2021/05/12 04:54:07;;;;;;;3.37;2.97;;;12.30;99.90;;;;;;5031390;28;20460;-71
2021/05/12 04:56:34;;;;;;;3.03;2.83;;;12.30;99.90;;;;;;5070971;28;20219;-71
2021/05/12 04:59:00;;;;;;;4.27;3.20;;;12.30;99.90;;;;;;5054686;28;20518;-71
2021/05/12 05:01:26;;;;;;;5.17;2.80;;;12.40;99.90;;;;;;5043541;28;20451;-71
2021/05/12 05:03:52;;;;;;;3.93;3.10;;;12.40;99.90;;;;;;5020556;28;20449;-71
2021/05/12 05:06:17;;;;;;;4.03;3.67;;;12.40;99.90;;;;;;5021404;28;20473;-74
2021/05/12 05:08:43;;;;;;;3.87;3.57;;;12.40;99.90;;;;;;5045000;28;20215;-71
2021/05/12 05:11:09;;;;;;;4.00;3.00;;;12.30;99.90;;;;;;5089601;28;20215;-71
2021/05/12 05:13:35;;;;;;;3.70;3.33;;;12.40;99.90;;;;;;5040832;28;20260;-72
2021/05/12 05:16:01;;;;;;;5.33;3.13;;;12.30;99.90;;;;;;5055615;28;20319;-73
2021/05/12 05:18:28;;;;;;;3.40;3.03;;;12.30;99.90;;;;;;5050037;28;21014;-72
2021/05/12 05:20:55;;;;;;;5.10;3.70;;;12.30;99.90;;;;;;5083999;28;20239;-72
2021/05/12 05:23:22;;;;;;;3.90;3.50;;;12.30;99.90;;;;;;5080783;28;20449;-71
2021/05/12 05:25:50;;;;;;;4.77;4.07;;;12.30;99.90;;;;;;5053739;28;20473;-71
2021/05/12 05:28:16;;;;;;;6.60;3.70;;;12.30;99.90;;;;;;5036732;28;20449;-71
2021/05/12 05:30:42;;;;;;;3.80;3.40;;;12.30;99.90;;;;;;5061433;28;20452;-71
2021/05/12 05:33:26;;;;;;;4.43;3.37;;;12.30;99.90;;;;;;5036308;28;20802;-72
2021/05/12 05:36:10;;;;;;;4.87;3.70;;;12.30;99.90;;;;;;5050058;28;20511;-71
2021/05/12 05:38:54;;;;;;;3.90;3.60;;;12.30;99.90;;;;;;5050456;28;20497;-71
2021/05/12 05:41:39;;;;;;;3.60;3.30;;;12.20;99.90;;;;;;5072781;28;20559;-71
2021/05/12 05:44:23;;;;;;;4.30;3.70;;;12.30;99.90;;;;;;5086836;28;20541;-71
2021/05/12 05:47:07;;;;;;;5.07;3.87;;;12.30;99.90;;;;;;5042113;28;20464;-73
2021/05/12 05:50:07;;;;;;;8.30;5.00;;;12.20;99.90;;;;;;5015360;28;20465;-71
2021/05/12 05:52:54;;;;;;;5.20;3.80;;;12.20;99.90;;;;;;5032810;28;20463;-72
2021/05/12 05:55:38;;;;;;;4.67;4.27;;;12.20;99.90;;;;;;5077196;28;20998;-71
2021/05/12 05:58:22;;;;;;;3.90;3.33;;;12.20;99.90;;;;;;5080444;28;20503;-71
2021/05/12 06:01:07;;;;;;;5.43;4.23;;;12.20;99.90;;;;;;5066143;28;20476;-71
2021/05/12 06:03:32;;;;;;;5.53;4.87;;;12.20;99.90;;;;;;5020246;28;20457;-71
2021/05/12 06:06:17;;;;;;;5.70;3.97;;;12.30;99.90;;;;;;5041816;28;20303;-71
2021/05/12 06:09:02;;;;;;;9.30;4.87;;;12.30;99.90;;;;;;5052990;28;20507;-72
2021/05/12 06:11:46;;;;;;;7.40;3.90;;;12.30;99.90;;;;;;5066922;28;20463;-72
2021/05/12 06:14:38;;;;;;;4.97;3.20;;;12.30;99.90;;;;;;5048228;28;20456;-72
2021/05/12 06:17:22;;;;;;;4.00;3.40;;;12.30;99.90;;;;;;5075933;28;20942;-72
2021/05/12 06:20:07;;;;;;;5.50;4.30;;;12.30;99.90;;;;;;5060686;28;20452;-72
2021/05/12 06:23:22;;;;;;;5.90;4.53;;;12.30;99.90;;;;;;5073237;28;20487;-72
2021/05/12 06:26:18;;;;;;;11.80;4.57;;;12.40;99.90;;;;;;5082045;28;20441;-71
2021/05/12 06:29:03;;;;;;;6.27;4.57;;;12.40;99.90;;;;;;5045844;28;20457;-71
2021/05/12 06:31:47;;;;;;;6.80;5.27;;;12.40;99.90;;;;;;5050857;28;20463;-72
2021/05/12 06:34:33;;;;;;;5.40;4.90;;;12.50;99.90;;;;;;5055604;28;20816;-72
2021/05/12 06:37:18;;;;;;;5.43;4.03;;;12.50;99.90;;;;;;5077407;28;20449;-72
2021/05/12 06:40:03;;;;;;;5.20;4.70;;;12.50;99.90;;;;;;5054662;28;20464;-71
2021/05/12 06:42:28;;;;;;;4.87;4.03;;;12.50;99.90;;;;;;5036053;28;20454;-72
2021/05/12 06:44:54;;;;;;;5.33;4.57;;;12.50;99.90;;;;;;5052128;28;20952;-71
2021/05/12 06:47:20;;;;;;;4.60;4.20;;;12.60;99.90;;;;;;5021959;28;20265;-71
2021/05/12 06:49:46;;;;;;;4.67;4.17;;;12.60;99.90;;;;;;5046073;28;20215;-71
2021/05/12 06:52:11;;;;;;;10.43;5.17;;;12.60;99.90;;;;;;5043842;28;20239;-72
2021/05/12 06:54:37;;;;;;;6.60;5.13;;;12.60;99.90;;;;;;5035941;28;20246;-71
2021/05/12 06:57:03;;;;;;;8.20;4.33;;;12.70;99.90;;;;;;5035136;28;20223;-71
2021/05/12 06:59:29;;;;;;;7.00;4.77;;;12.70;99.90;;;;;;5052635;28;20652;-72
2021/05/12 07:01:54;;;;;;;5.43;4.00;;;12.70;99.90;;;;;;5063523;28;20238;-72
2021/05/12 07:04:20;;;;;;;5.43;4.37;;;12.80;99.90;;;;;;5046510;28;20226;-73
2021/05/12 07:06:46;;;;;;;5.60;4.93;;;12.80;99.90;;;;;;5055587;28;20250;-71
2021/05/12 07:09:11;;;;;;;4.93;4.43;;;12.80;99.90;;;;;;5072177;28;20218;-72
2021/05/12 07:11:37;;;;;;;5.37;4.50;;;12.80;99.90;;;;;;5072400;28;20222;-72
2021/05/12 07:14:06;;;;;;;5.37;4.07;;;12.90;99.90;;;;;;5036907;28;20723;-71
2021/05/12 07:16:32;;;;;;;4.50;3.87;;;12.90;99.90;;;;;;5038731;28;20212;-71
2021/05/12 07:18:58;;;;;;;4.77;4.20;;;12.90;99.90;;;;;;5065918;28;21257;-72
2021/05/12 07:21:24;;;;;;;6.00;4.10;;;12.90;99.90;;;;;;5088743;28;20527;-73
2021/05/12 07:23:49;;;;;;;5.63;3.97;;;13.00;99.90;;;;;;5054575;28;20210;-71
2021/05/12 07:26:15;;;;;;;4.83;4.10;;;13.00;99.90;;;;;;5044389;28;20710;-71
2021/05/12 07:28:42;;;;;;;5.60;5.00;;;13.00;99.90;;;;;;5046604;28;20266;-72
2021/05/12 07:31:08;;;;;;;5.20;4.70;;;13.00;99.90;;;;;;5044185;28;20226;-71
2021/05/12 07:33:34;;;;;;;4.60;3.50;;;13.10;99.90;;;;;;5020407;28;20536;-72
2021/05/12 07:36:00;;;;;;;6.73;4.97;;;13.10;99.90;;;;;;5020397;28;20528;-72
2021/05/12 07:38:25;;;;;;;4.57;3.93;;;13.10;99.90;;;;;;5034749;28;20236;-72
2021/05/12 07:40:51;;;;;;;6.23;4.70;;;13.20;99.90;;;;;;5017700;28;20238;-72
2021/05/12 07:43:17;;;;;;;5.33;4.83;;;13.20;99.90;;;;;;5033572;28;20249;-72
2021/05/12 07:45:43;;;;;;;4.33;3.93;;;13.30;99.90;;;;;;5042829;28;20220;-72
2021/05/12 07:48:11;;;;;;;4.53;3.50;;;13.30;99.90;;;;;;5049404;28;20211;-72
2021/05/12 07:50:39;;;;;;;5.73;3.50;;;13.30;99.90;;;;;;5008885;28;20537;-72
2021/05/12 07:53:06;;;;;;;4.33;3.93;;;13.40;99.90;;;;;;5023411;28;20460;-71
2021/05/12 07:55:41;;;;;;;4.73;4.23;;;13.40;99.90;;;;;;5071927;28;20980;-71
2021/05/12 07:58:07;;;;;;;4.03;3.70;;;13.40;99.90;;;;;;5059443;28;20527;-72
2021/05/12 08:00:34;;;;;;;2.90;2.70;;;13.50;99.90;;;;;;5064137;28;20631;-71
2021/05/12 08:03:00;;;;;;;5.23;3.73;;;13.50;99.90;;;;;;5058450;28;20218;-72
2021/05/12 08:05:26;;;;;;;5.70;4.03;;;13.60;99.90;;;;;;5053818;28;20561;-71
2021/05/12 08:07:51;;;;;;;7.20;4.10;;;13.60;99.90;;;;;;5079243;28;20305;-71
2021/05/12 08:10:17;;;;;;;4.70;3.47;;;13.70;99.90;;;;;;5055489;28;20259;-72
2021/05/12 08:12:43;;;;;;;6.10;3.60;;;13.70;99.90;;;;;;5060516;28;20215;-71
2021/05/12 08:15:09;;;;;;;4.93;3.90;;;13.80;99.90;;;;;;5049694;28;20253;-71
2021/05/12 08:17:34;;;;;;;4.67;4.17;;;13.80;99.90;;;;;;5049942;28;20221;-72
2021/05/12 08:20:02;;;;;;;24.37;14.53;;;13.90;99.90;;;;;;5074230;28;20531;-72
2021/05/12 08:22:27;;;;;;;10.60;6.90;;;13.90;99.90;;;;;;5051642;28;20742;-71
2021/05/12 08:24:53;;;;;;;4.40;4.00;;;13.90;99.90;;;;;;5053360;28;20456;-72
2021/05/12 08:27:19;;;;;;;7.53;4.90;;;14.00;99.90;;;;;;5077707;28;20306;-72
2021/05/12 08:29:45;;;;;;;3.90;3.50;;;14.00;99.90;;;;;;5055386;28;20245;-71
2021/05/12 08:32:14;;;;;;;8.00;5.73;;;14.00;99.90;;;;;;5078073;28;20225;-72
2021/05/12 08:34:40;;;;;;;4.03;3.57;;;14.10;99.90;;;;;;5068589;28;20855;-72
2021/05/12 08:37:06;;;;;;;8.77;4.40;;;14.10;99.90;;;;;;5108141;28;20451;-72
2021/05/12 08:39:33;;;;;;;4.23;3.40;;;14.10;99.90;;;;;;5074246;28;20268;-71
2021/05/12 08:41:59;;;;;;;4.40;3.80;;;14.10;99.90;;;;;;5048549;28;20446;-71
2021/05/12 08:44:25;;;;;;;5.73;5.33;;;14.10;99.90;;;;;;5087979;28;20552;-72
2021/05/12 08:46:51;;;;;;;5.80;5.20;;;14.20;99.90;;;;;;5087318;28;20925;-71
2021/05/12 08:49:19;;;;;;;5.77;3.80;;;14.20;99.90;;;;;;5055399;28;20462;-73
2021/05/12 08:51:45;;;;;;;4.83;3.63;;;14.20;99.90;;;;;;5065495;28;21018;-71
2021/05/12 08:54:14;;;;;;;5.00;4.27;;;14.20;99.90;;;;;;5045310;28;20997;-71
2021/05/12 08:56:40;;;;;;;6.27;4.47;;;14.20;99.90;;;;;;5037419;28;20453;-72
2021/05/12 08:59:06;;;;;;;3.63;3.30;;;14.20;99.90;;;;;;5070397;28;20450;-72
2021/05/12 09:01:32;;;;;;;5.30;3.83;;;14.20;99.90;;;;;;5065199;28;20831;-71
2021/05/12 09:04:09;;;;;;;4.17;3.17;;;14.30;99.90;;;;;;5056705;28;20240;-72
2021/05/12 09:06:45;;;;;;;5.03;4.10;;;14.30;99.90;;;;;;5074558;28;20878;-72
2021/05/12 09:09:10;;;;;;;4.40;4.00;;;14.30;99.90;;;;;;5032951;28;20454;-71
2021/05/12 09:11:36;;;;;;;4.50;3.87;;;14.30;99.90;;;;;;5033822;28;20462;-71
2021/05/12 09:14:03;;;;;;;4.53;3.53;;;14.30;99.90;;;;;;5075836;28;20306;-73
2021/05/12 09:16:29;;;;;;;3.90;3.50;;;14.30;99.90;;;;;;5074455;28;20250;-71
2021/05/12 09:19:13;;;;;;;5.80;4.40;;;14.40;99.90;;;;;;5056841;28;20465;-71
2021/05/12 09:21:56;;;;;;;4.80;3.97;;;14.40;99.90;;;;;;5074208;28;20445;-72
2021/05/12 09:24:28;;;;;;;7.43;3.47;;;14.50;99.90;;;;;;5107512;28;20499;-71
2021/05/12 09:26:57;;;;;;;5.73;4.07;;;14.50;99.90;;;;;;5051371;28;20456;-72
2021/05/12 09:29:29;;;;;;;5.07;3.97;;;14.50;99.90;;;;;;5073042;28;20830;-72
2021/05/12 09:32:02;;;;;;;4.10;3.73;;;14.50;99.90;;;;;;5065946;28;20480;-71
2021/05/12 09:34:28;;;;;;;7.60;3.60;;;14.50;99.90;;;;;;5067363;28;20486;-71
2021/05/12 09:36:53;;;;;;;6.00;3.90;;;14.60;99.90;;;;;;5017071;28;20520;-71
2021/05/12 09:39:19;;;;;;;5.23;3.60;;;14.60;99.90;;;;;;5069392;28;20234;-72
2021/05/12 09:41:45;;;;;;;4.97;3.97;;;14.60;99.90;;;;;;5064548;28;20265;-72
2021/05/12 09:44:11;;;;;;;4.73;4.33;;;14.70;99.90;;;;;;5069485;28;20215;-71
2021/05/12 09:46:38;;;;;;;7.33;3.87;;;14.70;99.90;;;;;;5065329;28;20234;-71
2021/05/12 09:49:04;;;;;;;3.60;2.90;;;14.70;99.90;;;;;;5067347;28;20976;-71
2021/05/12 09:51:32;;;;;;;3.40;3.10;;;14.80;99.90;;;;;;5053214;28;20445;-71
2021/05/12 09:54:18;;;;;;;4.10;3.23;;;14.80;99.90;;;;;;5048603;28;20224;-71
2021/05/12 09:56:56;;;;;;;4.60;2.87;;;14.80;99.90;;;;;;5068345;28;20504;-71
2021/05/12 09:59:26;;;;;;;3.73;3.33;;;14.90;99.90;;;;;;5095092;28;20499;-71
2021/05/12 10:01:55;;;;;;;4.50;3.07;;;14.90;99.90;;;;;;5052626;28;20463;-72
2021/05/12 10:04:32;;;;;;;2.87;2.67;;;14.90;99.90;;;;;;5075105;28;20462;-71
2021/05/12 10:07:00;;;;;;;3.93;2.70;;;14.90;99.90;;;;;;5056399;28;20570;-71
2021/05/12 10:09:30;;;;;;;3.97;3.57;;;15.00;99.90;;;;;;5035806;28;20819;-71
2021/05/12 10:12:00;;;;;;;2.80;2.60;;;15.00;99.90;;;;;;5036026;28;20507;-72
2021/05/12 10:14:26;;;;;;;3.07;2.87;;;15.00;99.90;;;;;;5055276;28;20467;-73
2021/05/12 10:16:52;;;;;;;3.73;2.80;;;15.00;99.90;;;;;;5072706;28;20464;-72
2021/05/12 10:19:18;;;;;;;3.67;2.80;;;15.00;99.90;;;;;;5079251;28;20283;-72
2021/05/12 10:21:44;;;;;;;3.07;2.87;;;15.10;99.90;;;;;;5053663;28;20226;-71
2021/05/12 10:24:09;;;;;;;3.50;3.10;;;15.10;99.90;;;;;;5035237;28;20461;-71
2021/05/12 10:26:36;;;;;;;5.70;2.60;;;15.10;99.90;;;;;;5052916;28;20226;-71
2021/05/12 10:29:03;;;;;;;4.10;2.93;;;15.10;99.90;;;;;;5052081;28;20275;-71
2021/05/12 10:31:30;;;;;;;5.70;3.47;;;15.10;99.90;;;;;;5054770;28;20467;-72
2021/05/12 10:33:57;;;;;;;3.20;2.90;;;15.10;99.90;;;;;;5059309;28;20445;-72
2021/05/12 10:36:24;;;;;;;2.80;2.60;;;15.10;99.90;;;;;;5076352;28;20449;-72
2021/05/12 10:38:52;;;;;;;2.80;2.60;;;15.20;99.90;;;;;;5057951;28;20980;-72
2021/05/12 10:41:37;;;;;;;2.47;2.27;;;15.20;99.90;;;;;;5058465;28;20490;-71
2021/05/12 10:44:20;;;;;;;2.90;2.60;;;15.10;99.90;;;;;;5101553;28;20444;-71
2021/05/12 10:47:07;;;;;;;2.70;2.50;;;15.20;99.90;;;;;;5074228;28;20502;-71
2021/05/12 10:49:33;;;;;;;3.57;2.43;;;15.20;99.90;;;;;;5056985;28;20466;-71
2021/05/12 10:52:10;;;;;;;3.57;2.43;;;15.20;99.90;;;;;;5066771;28;20508;-72
2021/05/12 10:54:44;;;;;;;3.43;2.80;;;15.20;99.90;;;;;;5071263;28;20214;-71
2021/05/12 10:57:11;;;;;;;2.57;2.37;;;15.20;99.90;;;;;;5044701;28;20448;-71
2021/05/12 10:59:50;;;;;;;2.13;1.90;;;15.30;99.90;;;;;;5033091;28;20517;-71
2021/05/12 11:02:16;;;;;;;3.17;2.40;;;15.30;99.90;;;;;;5015785;28;20965;-70
2021/05/12 11:04:59;;;;;;;2.80;2.33;;;15.40;99.90;;;;;;4991243;28;20503;-70
2021/05/12 11:07:25;;;;;;;2.13;2.03;;;15.40;99.90;;;;;;5039155;28;20235;-71
2021/05/12 11:09:51;;;;;;;3.43;2.30;;;15.50;99.90;;;;;;5082889;28;20480;-70
2021/05/12 11:12:20;;;;;;;3.43;2.40;;;15.50;99.90;;;;;;5049723;28;20230;-70
2021/05/12 11:14:57;;;;;;;2.77;2.57;;;15.60;99.90;;;;;;5051438;28;20250;-70
2021/05/12 11:17:40;;;;;;;2.63;2.43;;;15.60;99.90;;;;;;5052066;28;20475;-70
2021/05/12 11:20:13;;;;;;;2.70;2.50;;;15.70;99.90;;;;;;5034616;28;20893;-70
2021/05/12 11:25:37;;;;;;;2.70;2.50;;;15.90;99.90;;;;;;5061474;28;20452;-70
2021/05/12 11:28:20;;;;;;;2.83;2.47;;;16.00;99.90;;;;;;5037171;28;20834;-69
2021/05/12 11:33:38;;;;;;;3.63;2.70;;;16.20;99.90;;;;;;5056230;28;20440;-70
2021/05/12 11:36:12;;;;;;;2.70;2.50;;;16.40;99.90;;;;;;5027529;28;20445;-69
2021/05/12 11:38:39;;;;;;;2.60;2.03;;;16.50;99.90;;;;;;5037995;28;21188;-69
2021/05/12 11:41:17;;;;;;;3.00;2.50;;;16.50;99.90;;;;;;5055292;28;20441;-70
2021/05/12 11:43:47;;;;;;;4.70;3.00;;;16.70;99.90;;;;;;5046832;28;20834;-71
2021/05/12 11:46:37;;;;;;;5.17;2.70;;;16.70;99.90;;;;;;5083886;28;20449;-70
2021/05/12 11:49:05;;;;;;;2.83;2.50;;;16.60;99.90;;;;;;5037812;28;20474;-70
2021/05/12 11:51:36;;;;;;;2.87;2.67;;;16.70;99.90;;;;;;5060905;28;20498;-70
2021/05/12 11:54:05;;;;;;;3.07;2.60;;;16.80;99.90;;;;;;5075914;28;20465;-69
2021/05/12 11:56:31;;;;;;;2.40;2.20;;;16.90;99.90;;;;;;5045132;28;20510;-71
2021/05/12 11:59:01;;;;;;;2.73;2.50;;;17.20;99.90;;;;;;5098062;28;20488;-71
2021/05/12 12:01:44;;;;;;;2.80;2.00;;;17.30;99.90;;;;;;5044213;28;20536;-70
2021/05/12 12:04:19;;;;;;;2.83;2.50;;;17.50;99.90;;;;;;5022640;28;20528;-71
2021/05/12 12:06:47;;;;;;;3.60;2.37;;;17.50;99.90;;;;;;5055387;28;20510;-71
2021/05/12 12:09:14;;;;;;;2.93;2.40;;;17.50;99.90;;;;;;5056487;28;20532;-70
2021/05/12 12:11:43;;;;;;;2.30;2.10;;;17.70;99.90;;;;;;5060889;28;20831;-71
2021/05/12 12:14:10;;;;;;;1.70;1.60;;;18.00;99.90;;;;;;5041778;28;20472;-70
2021/05/12 12:16:37;;;;;;;2.33;2.13;;;18.00;99.90;;;;;;5052050;28;20876;-72
2021/05/12 12:19:24;;;;;;;2.60;1.90;;;18.10;99.90;;;;;;5052607;28;20474;-70
2021/05/12 12:21:52;;;;;;;3.70;2.00;;;18.20;99.90;;;;;;5075193;28;20564;-71
2021/05/12 12:24:21;;;;;;;1.90;1.80;;;18.30;99.90;;;;;;5064002;28;20980;-71
2021/05/12 12:26:58;;;;;;;2.00;1.80;;;18.40;99.90;;;;;;5043938;28;20465;-70
2021/05/12 12:29:28;;;;;;;1.60;1.50;;;18.50;99.90;;;;;;5046723;28;20477;-70
2021/05/12 12:31:56;;;;;;;2.00;1.90;;;18.60;99.90;;;;;;5069592;28;20538;-70
2021/05/12 12:34:30;;;;;;;2.20;2.00;;;18.50;99.90;;;;;;5071814;28;20465;-73
2021/05/12 12:37:10;;;;;;;2.10;1.90;;;18.70;99.90;;;;;;5054517;28;20456;-70
2021/05/12 12:39:41;;;;;;;2.13;1.80;;;18.90;99.90;;;;;;5038140;28;20526;-71
2021/05/12 12:42:07;;;;;;;1.50;1.40;;;19.00;99.90;;;;;;5054504;28;20480;-72
2021/05/12 12:44:42;;;;;;;1.70;1.60;;;19.10;99.90;;;;;;5054809;28;20843;-74
2021/05/12 12:47:15;;;;;;;2.00;1.73;;;19.20;99.90;;;;;;5084513;28;20452;-71
2021/05/12 12:50:03;;;;;;;2.40;1.80;;;19.30;99.90;;;;;;5059385;28;20550;-70
2021/05/12 12:52:33;;;;;;;1.70;1.30;;;19.50;99.90;;;;;;5053974;28;20972;-70
2021/05/12 12:55:10;;;;;;;4.70;1.30;;;19.60;99.90;;;;;;5072109;28;20458;-70
2021/05/12 12:57:41;;;;;;;1.30;1.23;;;19.70;99.90;;;;;;5053924;28;20456;-71
2021/05/12 13:00:10;;;;;;;1.80;1.40;;;19.70;99.90;;;;;;5050802;28;20453;-71
2021/05/12 13:05:49;;;;;;;3.00;2.00;;;19.90;99.90;;;;;;5053585;28;20453;-70
2021/05/12 13:08:33;;;;;;;1.30;1.20;;;20.10;99.90;;;;;;5053888;28;20544;-70